Terminal Aerodrome Forecast
Issued by NWS

Home | Current Version | Previous Version | Text Only | Print | Product List | Glossary On
Versions: 1 2 3 4 5 6 7 8 9 10 11 12 13 14 15 16 17 18
584
FTUS43 KTOP 261735 CCA
TAFMHK
TAF COR
KMHK 261735Z 2618/2718 36008KT P6SM BKN015
     FM262200 36009KT P6SM BKN024
     FM270100 01005KT P6SM OVC120
     FM270900 01004KT P6SM BKN150=

USA.gov is the U.S. government's official web portal to all federal, state and local government web resources and services.